TimeCST,TemperatureF,Dew PointF,Humidity,Sea Level PressureIn,VisibilityMPH,Wind Direction,Wind SpeedMPH,Gust SpeedMPH,PrecipitationIn,Events,Conditions,WindDirDegrees,DateUTC
12:30 AM,24.8,19.4,80,30.18,5.0,NNW,10.4,-,0.00,Snow,Light Snow,340,2013-03-01 06:30:00
12:53 AM,24.1,19.9,84,30.25,5.0,NNW,10.4,-,0.00,Snow,Light Snow,340,2013-03-01 06:53:00
1:53 AM,24.1,19.0,81,30.25,3.0,NNW,10.4,-,0.00,Snow,Light Snow,340,2013-03-01 07:53:00
2:53 AM,23.0,19.0,85,30.25,7.0,NNW,10.4,-,0.00,Snow,Light Snow,340,2013-03-01 08:53:00
3:53 AM,23.0,18.0,81,30.25,9.0,North,9.2,-,0.00,Snow,Light Snow,350,2013-03-01 09:53:00
4:53 AM,21.9,16.0,78,30.27,10.0,North,12.7,-,0.00,,Overcast,350,2013-03-01 10:53:00
5:53 AM,19.0,14.0,81,30.28,10.0,North,11.5,-,N/A,,Scattered Clouds,350,2013-03-01 11:53:00
6:53 AM,15.1,10.9,84,30.30,10.0,NNW,11.5,-,N/A,,Clear,340,2013-03-01 12:53:00
7:53 AM,16.0,12.0,84,30.31,10.0,North,12.7,-,N/A,,Mostly Cloudy,350,2013-03-01 13:53:00
8:21 AM,17.6,12.2,79,30.25,10.0,North,12.7,-,N/A,,Overcast,360,2013-03-01 14:21:00
8:53 AM,19.0,14.0,81,30.33,8.0,North,11.5,-,N/A,,Overcast,360,2013-03-01 14:53:00
9:53 AM,21.9,16.0,78,30.34,9.0,North,10.4,-,N/A,,Overcast,10,2013-03-01 15:53:00
10:53 AM,24.1,17.1,75,30.35,10.0,NNE,15.0,-,N/A,,Overcast,30,2013-03-01 16:53:00
11:53 AM,25.0,15.1,66,30.36,10.0,North,12.7,-,N/A,,Overcast,10,2013-03-01 17:53:00
12:53 PM,25.0,16.0,69,30.35,10.0,NNE,12.7,-,N/A,,Overcast,20,2013-03-01 18:53:00
1:53 PM,25.0,15.1,66,30.35,10.0,NNE,11.5,-,N/A,,Overcast,20,2013-03-01 19:53:00
2:53 PM,25.0,15.1,66,30.35,10.0,NNE,12.7,-,N/A,,Overcast,20,2013-03-01 20:53:00
3:53 PM,25.0,15.1,66,30.35,10.0,North,13.8,-,N/A,,Overcast,10,2013-03-01 21:53:00
4:53 PM,25.0,15.1,66,30.36,10.0,North,9.2,-,N/A,,Overcast,10,2013-03-01 22:53:00
5:53 PM,23.0,15.1,72,30.38,10.0,NNE,11.5,-,N/A,,Overcast,20,2013-03-01 23:53:00
6:53 PM,21.9,14.0,72,30.40,10.0,North,10.4,-,N/A,,Overcast,360,2013-03-02 00:53:00
7:53 PM,21.9,14.0,72,30.41,10.0,North,10.4,-,N/A,,Overcast,350,2013-03-02 01:53:00
8:53 PM,21.0,14.0,74,30.40,10.0,North,11.5,-,N/A,,Overcast,360,2013-03-02 02:53:00
9:53 PM,21.0,14.0,74,30.42,10.0,North,10.4,-,N/A,,Overcast,10,2013-03-02 03:53:00
10:53 PM,19.0,12.9,77,30.40,10.0,NNW,3.5,-,N/A,,Overcast,340,2013-03-02 04:53:00
11:53 PM,14.0,10.9,88,30.40,10.0,NW,4.6,-,N/A,,Scattered Clouds,310,2013-03-02 05:53:00